Time;durP1;ratioP1;P1;durP2;ratioP2;P2;SDS_P1;SDS_P2;PMS_P1;PMS_P2;Temp;Humidity;BMP_temperature;BMP_pressure;BME280_temperature;BME280_humidity;BME280_pressure;Samples;Min_cycle;Max_cycle;Signal;HPM_P1;HPM_P2
2023/09/24 00:02:32;;;;;;;4.27;1.93;;;;;;;;;;4935107;29;20572;-74
2023/09/24 00:05:40;;;;;;;3.83;1.70;;;;;;;;;;4935693;29;20553;-74
2023/09/24 00:08:44;;;;;;;3.50;1.57;;;;;;;;;;4934992;29;20193;-74
2023/09/24 00:11:48;;;;;;;4.43;1.70;;;;;;;;;;4935642;29;20223;-74
2023/09/24 00:14:52;;;;;;;2.57;1.67;;;;;;;;;;4935576;29;20180;-74
2023/09/24 00:17:56;;;;;;;1.70;1.40;;;;;;;;;;4924008;29;20180;-74
2023/09/24 00:21:00;;;;;;;5.27;1.50;;;;;;;;;;4935567;29;20185;-74
2023/09/24 00:24:05;;;;;;;2.10;1.50;;;;;;;;;;4935726;29;20184;-74
2023/09/24 00:27:09;;;;;;;4.70;1.93;;;;;;;;;;4935444;29;20680;-74
2023/09/24 00:30:14;;;;;;;2.13;1.50;;;;;;;;;;4934946;29;20192;-73
2023/09/24 00:33:19;;;;;;;2.33;1.57;;;;;;;;;;4934586;29;20224;-74
2023/09/24 00:36:23;;;;;;;1.87;1.57;;;;;;;;;;4935596;29;20181;-73
2023/09/24 00:39:27;;;;;;;2.20;1.50;;;;;;;;;;4938937;29;20184;-74
2023/09/24 00:42:32;;;;;;;3.73;1.53;;;;;;;;;;4937792;29;20232;-74
2023/09/24 00:45:36;;;;;;;1.80;1.50;;;;;;;;;;4927133;29;20629;-74
2023/09/24 00:48:40;;;;;;;2.23;1.67;;;;;;;;;;4937772;29;20180;-74
2023/09/24 00:51:45;;;;;;;2.40;1.60;;;;;;;;;;4937806;29;20223;-73
2023/09/24 00:54:49;;;;;;;3.60;1.70;;;;;;;;;;4937754;29;20180;-74
2023/09/24 00:57:54;;;;;;;2.80;1.70;;;;;;;;;;4937692;29;20188;-73
2023/09/24 01:00:59;;;;;;;3.63;1.83;;;;;;;;;;4938137;29;20188;-73
2023/09/24 01:04:08;;;;;;;2.67;1.90;;;;;;;;;;4937503;29;20184;-74
2023/09/24 01:07:12;;;;;;;2.23;1.60;;;;;;;;;;4937668;29;20692;-73
2023/09/24 01:10:20;;;;;;;4.60;2.10;;;;;;;;;;4937464;29;20184;-73
2023/09/24 01:13:24;;;;;;;2.50;1.60;;;;;;;;;;4926278;29;20271;-74
2023/09/24 01:16:29;;;;;;;2.63;1.60;;;;;;;;;;4937605;29;20518;-74
2023/09/24 01:19:34;;;;;;;2.10;1.80;;;;;;;;;;4937593;29;20216;-73
2023/09/24 01:22:40;;;;;;;3.40;1.70;;;;;;;;;;4926250;29;20223;-74
2023/09/24 01:25:45;;;;;;;3.80;1.90;;;;;;;;;;4937107;29;20629;-73
2023/09/24 01:28:48;;;;;;;2.60;1.60;;;;;;;;;;4937120;29;20526;-74
2023/09/24 01:31:53;;;;;;;2.03;1.77;;;;;;;;;;4937158;29;20216;-74
2023/09/24 01:34:58;;;;;;;1.80;1.43;;;;;;;;;;4937214;29;20184;-74
2023/09/24 01:38:06;;;;;;;2.30;1.77;;;;;;;;;;4937245;29;20180;-74
2023/09/24 01:41:10;;;;;;;2.57;1.70;;;;;;;;;;4937600;29;20640;-74
2023/09/24 01:44:16;;;;;;;2.47;1.50;;;;;;;;;;4937067;29;20188;-73
2023/09/24 01:47:22;;;;;;;2.40;1.97;;;;;;;;;;4936678;29;20216;-73
2023/09/24 01:50:29;;;;;;;3.73;1.80;;;;;;;;;;4937041;29;20526;-74
2023/09/24 01:53:38;;;;;;;4.30;1.67;;;;;;;;;;4937771;29;20192;-74
2023/09/24 01:56:42;;;;;;;1.90;1.60;;;;;;;;;;4936837;29;20628;-73
2023/09/24 01:59:47;;;;;;;2.97;1.80;;;;;;;;;;4936568;29;20636;-74
2023/09/24 02:02:57;;;;;;;1.87;1.63;;;;;;;;;;4936494;29;20569;-73
2023/09/24 02:06:02;;;;;;;2.87;1.70;;;;;;;;;;4937351;29;20184;-74
2023/09/24 02:09:07;;;;;;;5.97;2.27;;;;;;;;;;4936610;29;20188;-74
2023/09/24 02:12:11;;;;;;;4.07;1.80;;;;;;;;;;4936082;29;20231;-74
2023/09/24 02:15:18;;;;;;;4.97;1.90;;;;;;;;;;4936520;29;20180;-74
2023/09/24 02:18:22;;;;;;;4.07;1.80;;;;;;;;;;4937493;29;20185;-74
2023/09/24 02:21:26;;;;;;;2.30;1.90;;;;;;;;;;4937408;29;20224;-74
2023/09/24 02:24:30;;;;;;;2.23;2.00;;;;;;;;;;4936318;29;20188;-74
2023/09/24 02:27:34;;;;;;;2.73;2.30;;;;;;;;;;4925566;29;20211;-73
2023/09/24 02:30:39;;;;;;;3.07;2.10;;;;;;;;;;4936257;29;20188;-74
2023/09/24 02:33:43;;;;;;;3.63;1.97;;;;;;;;;;4936208;29;20188;-74
2023/09/24 02:36:47;;;;;;;3.13;1.90;;;;;;;;;;4936447;29;20620;-74
2023/09/24 02:39:52;;;;;;;2.30;2.00;;;;;;;;;;4936065;29;20179;-73
2023/09/24 02:42:58;;;;;;;3.70;2.03;;;;;;;;;;4936431;29;20216;-73
2023/09/24 02:46:05;;;;;;;3.70;1.97;;;;;;;;;;4936734;29;20188;-74
2023/09/24 02:49:10;;;;;;;2.30;2.03;;;;;;;;;;4935677;29;20192;-74
2023/09/24 02:52:15;;;;;;;2.63;1.90;;;;;;;;;;4935833;29;20561;-74
2023/09/24 02:55:19;;;;;;;2.43;1.80;;;;;;;;;;4935755;29;20188;-74
2023/09/24 02:58:23;;;;;;;3.20;1.73;;;;;;;;;;4935792;29;20653;-73
2023/09/24 03:01:28;;;;;;;4.30;2.13;;;;;;;;;;4924602;29;20220;-74
2023/09/24 03:04:32;;;;;;;3.77;2.17;;;;;;;;;;4935518;29;20644;-75
2023/09/24 03:07:37;;;;;;;2.93;2.07;;;;;;;;;;4935585;29;20672;-74
2023/09/24 03:10:41;;;;;;;2.93;1.80;;;;;;;;;;4935353;29;20188;-74
2023/09/24 03:13:45;;;;;;;4.17;2.23;;;;;;;;;;4935219;29;20211;-75
2023/09/24 03:16:49;;;;;;;5.70;2.53;;;;;;;;;;4935297;29;20184;-74
2023/09/24 03:19:54;;;;;;;2.77;2.30;;;;;;;;;;4935336;29;20180;-74
2023/09/24 03:23:08;;;;;;;4.63;2.60;;;;;;;;;;4935128;29;20220;-74
2023/09/24 03:26:15;;;;;;;6.37;2.20;;;;;;;;;;4935115;29;20180;-74
2023/09/24 03:29:19;;;;;;;4.00;2.53;;;;;;;;;;4936199;29;20516;-74
2023/09/24 03:32:23;;;;;;;2.47;2.27;;;;;;;;;;4935156;29;20232;-74
2023/09/24 03:35:28;;;;;;;2.93;2.03;;;;;;;;;;4924474;29;20184;-74
2023/09/24 03:38:32;;;;;;;3.87;2.27;;;;;;;;;;4935237;29;20188;-75
2023/09/24 03:41:36;;;;;;;2.90;2.57;;;;;;;;;;4935460;29;20220;-74
2023/09/24 03:44:40;;;;;;;2.83;2.20;;;;;;;;;;4924423;29;20180;-74
2023/09/24 03:47:46;;;;;;;4.00;2.20;;;;;;;;;;4934941;29;20215;-74
2023/09/24 03:50:50;;;;;;;2.47;2.27;;;;;;;;;;4935720;29;20184;-74
2023/09/24 03:53:54;;;;;;;4.97;2.30;;;;;;;;;;4934925;29;20192;-74
2023/09/24 03:56:58;;;;;;;4.60;2.53;;;;;;;;;;4935909;29;20184;-74
2023/09/24 04:00:15;;;;;;;3.07;2.27;;;;;;;;;;4935769;29;20188;-74
2023/09/24 04:03:19;;;;;;;2.63;2.07;;;;;;;;;;4935561;29;20215;-74
2023/09/24 04:06:23;;;;;;;3.70;2.50;;;;;;;;;;4935690;29;20184;-75
2023/09/24 04:09:32;;;;;;;4.73;2.30;;;;;;;;;;4935591;29;20181;-74
2023/09/24 04:12:36;;;;;;;4.77;2.70;;;;;;;;;;4939176;29;20224;-74
2023/09/24 04:15:40;;;;;;;4.10;2.47;;;;;;;;;;4939473;29;20189;-74
2023/09/24 04:18:44;;;;;;;2.63;2.10;;;;;;;;;;4939032;29;20181;-74
2023/09/24 04:21:48;;;;;;;3.43;2.30;;;;;;;;;;4938434;29;20224;-74
2023/09/24 04:24:54;;;;;;;3.37;2.40;;;;;;;;;;4938454;29;20184;-74
2023/09/24 04:27:59;;;;;;;2.60;2.30;;;;;;;;;;4939174;29;20545;-74
2023/09/24 04:31:03;;;;;;;4.90;2.57;;;;;;;;;;4939239;29;20192;-74
2023/09/24 04:34:09;;;;;;;3.70;2.70;;;;;;;;;;4938931;29;20184;-74
2023/09/24 04:37:16;;;;;;;3.47;2.40;;;;;;;;;;4939097;29;20184;-74
2023/09/24 04:40:20;;;;;;;2.57;1.97;;;;;;;;;;4938975;29;20640;-74
2023/09/24 04:43:24;;;;;;;2.73;2.23;;;;;;;;;;4927281;29;20223;-74
2023/09/24 04:46:28;;;;;;;3.03;2.20;;;;;;;;;;4938925;29;20184;-74
2023/09/24 04:49:32;;;;;;;2.80;2.50;;;;;;;;;;4938794;29;20181;-74
2023/09/24 04:52:38;;;;;;;4.00;2.67;;;;;;;;;;4937670;29;20219;-74
2023/09/24 04:55:42;;;;;;;4.63;2.80;;;;;;;;;;4938734;29;20192;-74
2023/09/24 04:58:46;;;;;;;2.70;2.30;;;;;;;;;;4938993;29;20180;-74
2023/09/24 05:01:50;;;;;;;3.67;2.57;;;;;;;;;;4938321;29;20565;-74
2023/09/24 05:04:54;;;;;;;3.20;2.30;;;;;;;;;;4938423;29;20192;-74
2023/09/24 05:07:58;;;;;;;3.60;2.30;;;;;;;;;;4937708;29;20552;-74
2023/09/24 05:11:03;;;;;;;3.97;2.30;;;;;;;;;;4937497;29;20188;-74
2023/09/24 05:14:07;;;;;;;4.00;2.60;;;;;;;;;;4938761;29;20181;-73
2023/09/24 05:17:11;;;;;;;4.80;2.33;;;;;;;;;;4938499;29;20189;-74
2023/09/24 05:20:16;;;;;;;3.97;2.70;;;;;;;;;;4938307;29;20184;-74
2023/09/24 05:23:21;;;;;;;3.73;2.43;;;;;;;;;;4936427;29;20224;-74
2023/09/24 05:26:25;;;;;;;5.10;1.97;;;;;;;;;;4937135;29;20184;-74
2023/09/24 05:29:29;;;;;;;2.20;2.00;;;;;;;;;;4937967;29;20176;-74
2023/09/24 05:32:33;;;;;;;2.60;2.30;;;;;;;;;;4937792;29;20242;-73
2023/09/24 05:35:37;;;;;;;4.57;2.60;;;;;;;;;;4937939;29;20180;-75
2023/09/24 05:38:41;;;;;;;4.17;2.57;;;;;;;;;;4937011;29;20180;-75
2023/09/24 05:41:45;;;;;;;4.57;2.40;;;;;;;;;;4936989;29;20216;-75
2023/09/24 05:44:50;;;;;;;6.47;2.30;;;;;;;;;;4937122;29;20525;-76
2023/09/24 05:47:53;;;;;;;6.07;2.33;;;;;;;;;;4937758;29;20216;-74
2023/09/24 05:51:02;;;;;;;4.67;2.67;;;;;;;;;;4936978;29;20624;-73
2023/09/24 05:54:07;;;;;;;8.47;2.60;;;;;;;;;;4937133;29;20185;-74
2023/09/24 05:57:11;;;;;;;5.83;2.70;;;;;;;;;;4937671;29;20184;-74
2023/09/24 06:00:16;;;;;;;7.43;3.03;;;;;;;;;;4937562;29;20184;-74
2023/09/24 06:03:21;;;;;;;5.17;2.97;;;;;;;;;;4936450;29;20224;-74
2023/09/24 06:06:24;;;;;;;4.03;3.07;;;;;;;;;;4937449;29;20188;-74
2023/09/24 06:09:30;;;;;;;6.57;3.30;;;;;;;;;;4936271;29;20212;-74
2023/09/24 06:12:33;;;;;;;4.60;3.03;;;;;;;;;;4925300;29;20236;-75
2023/09/24 06:15:38;;;;;;;4.03;2.97;;;;;;;;;;4937014;29;20180;-74
2023/09/24 06:18:42;;;;;;;3.87;3.10;;;;;;;;;;4936905;29;20184;-75
2023/09/24 06:21:49;;;;;;;4.23;2.97;;;;;;;;;;4935980;29;20215;-74
2023/09/24 06:24:53;;;;;;;5.13;3.67;;;;;;;;;;4936828;29;20186;-74
2023/09/24 06:27:57;;;;;;;4.97;3.00;;;;;;;;;;4935859;29;20208;-74
2023/09/24 06:31:03;;;;;;;4.97;3.80;;;;;;;;;;4936781;29;20656;-74
2023/09/24 06:34:08;;;;;;;4.20;3.80;;;;;;;;;;4936818;29;20188;-74
2023/09/24 06:37:12;;;;;;;3.87;3.30;;;;;;;;;;4936972;29;20188;-74
2023/09/24 06:40:16;;;;;;;4.77;3.30;;;;;;;;;;4936665;29;20176;-74
2023/09/24 06:43:20;;;;;;;5.07;3.27;;;;;;;;;;4936505;29;20220;-74
2023/09/24 06:46:24;;;;;;;3.20;2.90;;;;;;;;;;4935964;29;20188;-74
2023/09/24 06:49:28;;;;;;;3.10;2.70;;;;;;;;;;4936383;29;20680;-74
2023/09/24 06:52:33;;;;;;;5.17;2.80;;;;;;;;;;4936594;29;20286;-74
2023/09/24 06:55:40;;;;;;;2.97;2.30;;;;;;;;;;4936537;29;20184;-74
2023/09/24 06:58:44;;;;;;;3.17;2.10;;;;;;;;;;4935821;29;20188;-74
2023/09/24 07:01:48;;;;;;;3.80;2.43;;;;;;;;;;4936422;29;20220;-74
2023/09/24 07:04:53;;;;;;;5.20;2.60;;;;;;;;;;4936398;29;20188;-74
2023/09/24 07:07:58;;;;;;;4.40;2.30;;;;;;;;;;4936379;29;20216;-74
2023/09/24 07:11:33;;;;;;;3.83;2.70;;;;;;;;;;4936172;29;20526;-74
2023/09/24 07:14:37;;;;;;;2.93;2.40;;;;;;;;;;4936086;29;20189;-74
2023/09/24 07:17:41;;;;;;;5.00;2.57;;;;;;;;;;4936334;29;20639;-74
2023/09/24 07:20:49;;;;;;;5.80;2.93;;;;;;;;;;4936064;29;20185;-74
2023/09/24 07:23:54;;;;;;;2.80;2.30;;;;;;;;;;4936113;29;20184;-73
2023/09/24 07:27:02;;;;;;;3.80;2.40;;;;;;;;;;4936357;29;20218;-74
2023/09/24 07:30:08;;;;;;;3.97;2.40;;;;;;;;;;4935133;29;20176;-74
2023/09/24 07:33:13;;;;;;;5.27;2.30;;;;;;;;;;4935810;29;20219;-74
2023/09/24 07:36:17;;;;;;;4.00;2.37;;;;;;;;;;4936274;29;20188;-74
2023/09/24 07:39:21;;;;;;;7.70;2.30;;;;;;;;;;4935254;29;20636;-75
2023/09/24 07:42:25;;;;;;;5.03;2.23;;;;;;;;;;4935635;29;20216;-74
2023/09/24 07:45:29;;;;;;;2.83;2.27;;;;;;;;;;4935957;29;20188;-74
2023/09/24 07:48:33;;;;;;;3.80;1.90;;;;;;;;;;4939087;29;20220;-75
2023/09/24 07:51:37;;;;;;;5.30;2.20;;;;;;;;;;4939828;29;20223;-75
2023/09/24 07:54:43;;;;;;;6.40;2.43;;;;;;;;;;4938935;29;20184;-75
2023/09/24 07:57:47;;;;;;;7.33;2.10;;;;;;;;;;4939522;29;20636;-75
2023/09/24 08:00:52;;;;;;;3.17;1.80;;;;;;;;;;4939992;29;20625;-75
2023/09/24 08:03:56;;;;;;;5.33;3.00;;;;;;;;;;4939487;29;20180;-75
2023/09/24 08:07:01;;;;;;;5.83;2.37;;;;;;;;;;4938879;29;20176;-74
2023/09/24 08:10:05;;;;;;;5.50;2.10;;;;;;;;;;4939291;29;20684;-74
2023/09/24 08:13:09;;;;;;;4.17;2.00;;;;;;;;;;4939144;29;20568;-74
2023/09/24 08:16:14;;;;;;;6.83;2.63;;;;;;;;;;4939603;29;20184;-74
2023/09/24 08:19:18;;;;;;;4.27;2.30;;;;;;;;;;4939327;29;20628;-74
2023/09/24 08:22:23;;;;;;;3.50;2.20;;;;;;;;;;4939332;29;20223;-74
2023/09/24 08:25:27;;;;;;;2.90;1.93;;;;;;;;;;4938253;29;20180;-74
2023/09/24 08:28:31;;;;;;;3.97;2.57;;;;;;;;;;4939240;29;20219;-73
2023/09/24 08:31:35;;;;;;;3.40;2.23;;;;;;;;;;4939193;29;20220;-75
2023/09/24 08:34:39;;;;;;;2.83;1.90;;;;;;;;;;4938943;29;20521;-73
2023/09/24 08:37:44;;;;;;;4.33;2.60;;;;;;;;;;4938062;29;20184;-74
2023/09/24 08:40:48;;;;;;;4.13;2.20;;;;;;;;;;4938974;29;20184;-73
2023/09/24 08:43:56;;;;;;;4.53;2.30;;;;;;;;;;4939122;29;20188;-74
2023/09/24 08:47:01;;;;;;;4.67;2.30;;;;;;;;;;4938755;29;20188;-73
2023/09/24 08:50:06;;;;;;;2.97;2.00;;;;;;;;;;4938814;29;20212;-74
2023/09/24 08:53:12;;;;;;;4.27;2.10;;;;;;;;;;4938574;29;20219;-74
2023/09/24 08:56:20;;;;;;;3.53;2.37;;;;;;;;;;4938515;29;20189;-73
2023/09/24 08:59:26;;;;;;;3.50;2.10;;;;;;;;;;4938005;29;20188;-74
2023/09/24 09:02:30;;;;;;;4.03;2.23;;;;;;;;;;4938339;29;20220;-74
2023/09/24 09:05:37;;;;;;;3.47;2.07;;;;;;;;;;4937579;29;20207;-73
2023/09/24 09:08:51;;;;;;;5.07;2.20;;;;;;;;;;4938457;29;20210;-74
2023/09/24 09:11:54;;;;;;;5.10;2.23;;;;;;;;;;4938151;29;20221;-74
2023/09/24 09:14:59;;;;;;;6.37;2.03;;;;;;;;;;4938483;29;20183;-73
2023/09/24 09:18:03;;;;;;;3.60;2.20;;;;;;;;;;4938142;29;20193;-74
2023/09/24 09:21:07;;;;;;;4.57;2.00;;;;;;;;;;4938330;29;20189;-74
2023/09/24 09:24:25;;;;;;;3.20;2.30;;;;;;;;;;4937259;29;20181;-74
2023/09/24 09:27:34;;;;;;;3.63;2.10;;;;;;;;;;4926535;29;20186;-74
2023/09/24 09:30:38;;;;;;;3.85;2.03;;;;;;;;;;4938180;29;20188;-74
2023/09/24 09:33:45;;;;;;;4.43;1.95;;;;;;;;;;4938149;29;20183;-74
2023/09/24 09:36:50;;;;;;;3.80;1.92;;;;;;;;;;4938055;29;20181;-73
2023/09/24 09:39:55;;;;;;;4.43;2.20;;;;;;;;;;4936981;29;20191;-74
2023/09/24 09:42:59;;;;;;;3.25;1.90;;;;;;;;;;4937572;29;20224;-73
2023/09/24 09:46:07;;;;;;;5.43;2.10;;;;;;;;;;4937880;29;20185;-74
2023/09/24 09:49:12;;;;;;;4.65;1.98;;;;;;;;;;4937736;29;20219;-74
2023/09/24 09:52:19;;;;;;;2.85;1.88;;;;;;;;;;4937544;29;20226;-74
2023/09/24 09:55:24;;;;;;;3.33;2.17;;;;;;;;;;4937433;29;20190;-74
2023/09/24 09:58:38;;;;;;;3.35;1.80;;;;;;;;;;4937345;29;20185;-74
2023/09/24 10:01:42;;;;;;;5.80;1.92;;;;;;;;;;4937634;29;20212;-74
2023/09/24 10:04:47;;;;;;;3.87;2.10;;;;;;;;;;4938030;29;20193;-74
2023/09/24 10:07:51;;;;;;;5.93;2.40;;;;;;;;;;4937229;29;20181;-74
2023/09/24 10:10:55;;;;;;;4.50;2.10;;;;;;;;;;4936358;29;20183;-74
2023/09/24 10:14:05;;;;;;;4.37;2.13;;;;;;;;;;4937341;29;20182;-74
2023/09/24 10:17:25;;;;;;;4.60;1.77;;;;;;;;;;4936754;29;20181;-73
2023/09/24 10:20:50;;;;;;;3.27;1.90;;;;;;;;;;4936933;29;20184;-74
2023/09/24 10:23:54;;;;;;;3.03;1.83;;;;;;;;;;4936998;29;20663;-74
2023/09/24 10:27:05;;;;;;;3.27;2.13;;;;;;;;;;4937128;29;20622;-74
2023/09/24 10:30:09;;;;;;;3.37;2.00;;;;;;;;;;4936196;29;20210;-73
2023/09/24 10:33:13;;;;;;;3.27;1.50;;;;;;;;;;4936673;29;20221;-74
2023/09/24 10:36:23;;;;;;;1.97;1.63;;;;;;;;;;4936936;29;20188;-73
2023/09/24 10:39:27;;;;;;;2.90;1.90;;;;;;;;;;4936817;29;20174;-74
2023/09/24 10:42:37;;;;;;;2.65;1.83;;;;;;;;;;4924974;29;20229;-74
2023/09/24 10:45:42;;;;;;;3.67;1.85;;;;;;;;;;4935676;29;20184;-74
2023/09/24 10:48:46;;;;;;;4.55;1.60;;;;;;;;;;4935921;29;20191;-74
2023/09/24 10:51:58;;;;;;;6.82;1.50;;;;;;;;;;4936604;29;20226;-74
2023/09/24 10:55:01;;;;;;;2.63;1.20;;;;;;;;;;4935765;29;20182;-74
2023/09/24 10:58:14;;;;;;;2.87;1.40;;;;;;;;;;4936646;29;20527;-73
2023/09/24 11:01:29;;;;;;;2.73;1.20;;;;;;;;;;4936528;29;20188;-74
2023/09/24 11:04:33;;;;;;;1.43;1.10;;;;;;;;;;4936283;29;20641;-74
2023/09/24 11:07:37;;;;;;;2.40;1.10;;;;;;;;;;4935764;29;20192;-74
2023/09/24 11:10:46;;;;;;;2.73;1.10;;;;;;;;;;4936054;29;20208;-74
2023/09/24 11:13:50;;;;;;;2.10;1.00;;;;;;;;;;4935992;29;20669;-74
2023/09/24 11:16:55;;;;;;;5.37;1.30;;;;;;;;;;4936380;29;20182;-74
2023/09/24 11:19:59;;;;;;;2.70;1.53;;;;;;;;;;4934786;29;20187;-74
2023/09/24 11:23:11;;;;;;;2.13;1.13;;;;;;;;;;4935955;29;20691;-74
2023/09/24 11:26:15;;;;;;;1.50;1.00;;;;;;;;;;4936025;29;20178;-74
2023/09/24 11:29:19;;;;;;;2.40;1.37;;;;;;;;;;4935913;29;20217;-74
2023/09/24 11:32:25;;;;;;;2.37;1.40;;;;;;;;;;4935975;29;20220;-74
2023/09/24 11:35:37;;;;;;;2.77;1.20;;;;;;;;;;4936223;29;20549;-74
2023/09/24 11:38:41;;;;;;;2.23;1.10;;;;;;;;;;4936155;29;20181;-74
2023/09/24 11:41:46;;;;;;;2.87;1.27;;;;;;;;;;4936024;29;20220;-74
2023/09/24 11:44:50;;;;;;;1.57;1.30;;;;;;;;;;4935285;29;20628;-74
2023/09/24 11:47:54;;;;;;;2.40;1.13;;;;;;;;;;4935989;29;20188;-74
2023/09/24 11:51:02;;;;;;;3.33;1.00;;;;;;;;;;4935102;29;20215;-74
2023/09/24 11:54:06;;;;;;;1.90;1.10;;;;;;;;;;4936301;29;20188;-74
2023/09/24 11:57:11;;;;;;;2.40;1.30;;;;;;;;;;4936100;29;20184;-74
2023/09/24 12:00:15;;;;;;;3.43;1.60;;;;;;;;;;4935225;29;20185;-74
2023/09/24 12:03:20;;;;;;;4.47;1.00;;;;;;;;;;4936661;29;20549;-74
2023/09/24 12:06:25;;;;;;;2.77;1.10;;;;;;;;;;4935921;29;20185;-74
2023/09/24 12:09:28;;;;;;;5.23;1.20;;;;;;;;;;4935743;29;20218;-74
2023/09/24 12:12:33;;;;;;;1.63;1.03;;;;;;;;;;4935362;29;20223;-74
2023/09/24 12:15:37;;;;;;;1.40;1.07;;;;;;;;;;4935827;29;20186;-74
2023/09/24 12:18:42;;;;;;;4.33;1.20;;;;;;;;;;4935710;29;20195;-74
2023/09/24 12:21:46;;;;;;;4.57;1.43;;;;;;;;;;4935666;29;20217;-74
2023/09/24 12:24:50;;;;;;;1.70;1.20;;;;;;;;;;4934871;29;20189;-73
2023/09/24 12:27:54;;;;;;;3.10;1.27;;;;;;;;;;4935732;29;20196;-73
2023/09/24 12:30:58;;;;;;;3.25;1.08;;;;;;;;;;4935605;29;20219;-74
2023/09/24 12:34:03;;;;;;;1.95;1.17;;;;;;;;;;4939020;29;20183;-74
2023/09/24 12:37:07;;;;;;;3.75;1.30;;;;;;;;;;4939198;29;20637;-74
2023/09/24 12:40:11;;;;;;;2.65;1.27;;;;;;;;;;4938928;29;20186;-74
2023/09/24 12:43:15;;;;;;;1.30;1.10;;;;;;;;;;4937931;29;20692;-74
2023/09/24 12:46:19;;;;;;;1.75;1.00;;;;;;;;;;4938708;29;20188;-74
2023/09/24 12:49:23;;;;;;;2.80;1.10;;;;;;;;;;4938079;29;20185;-74
2023/09/24 12:52:35;;;;;;;2.13;1.15;;;;;;;;;;4938746;29;20222;-74
2023/09/24 12:55:39;;;;;;;2.27;1.00;;;;;;;;;;4938715;29;20179;-74
2023/09/24 12:58:45;;;;;;;3.13;1.10;;;;;;;;;;4937741;29;20190;-74
2023/09/24 13:01:48;;;;;;;2.73;1.10;;;;;;;;;;4938800;29;20223;-74
2023/09/24 13:04:52;;;;;;;2.80;1.07;;;;;;;;;;4938490;29;20184;-74
2023/09/24 13:07:56;;;;;;;5.73;1.30;;;;;;;;;;4938347;29;20185;-73
2023/09/24 13:11:01;;;;;;;1.93;1.20;;;;;;;;;;4937483;29;20208;-74
2023/09/24 13:14:05;;;;;;;2.20;1.30;;;;;;;;;;4938551;29;20191;-74
2023/09/24 13:17:09;;;;;;;1.80;1.27;;;;;;;;;;4938499;29;20181;-74
2023/09/24 13:20:14;;;;;;;2.60;1.33;;;;;;;;;;4938690;29;20180;-74
2023/09/24 13:23:18;;;;;;;3.53;1.20;;;;;;;;;;4938000;29;20223;-74
2023/09/24 13:26:22;;;;;;;1.98;1.40;;;;;;;;;;4937990;29;20185;-74
2023/09/24 13:29:28;;;;;;;2.65;1.35;;;;;;;;;;4938128;29;20188;-74
2023/09/24 13:32:34;;;;;;;2.15;1.20;;;;;;;;;;4937012;29;20221;-74
2023/09/24 13:35:40;;;;;;;2.80;1.50;;;;;;;;;;4937833;29;20218;-74
2023/09/24 13:38:44;;;;;;;2.47;1.33;;;;;;;;;;4938136;29;20186;-72
2023/09/24 13:41:48;;;;;;;2.50;1.50;;;;;;;;;;4937922;29;20221;-74
2023/09/24 13:44:52;;;;;;;2.53;1.30;;;;;;;;;;4937080;29;20188;-74
2023/09/24 13:47:56;;;;;;;2.25;1.15;;;;;;;;;;4937830;29;20188;-73
2023/09/24 13:51:01;;;;;;;2.22;1.30;;;;;;;;;;4937007;29;20213;-74
2023/09/24 13:54:05;;;;;;;1.90;1.20;;;;;;;;;;4937818;29;20187;-74
2023/09/24 13:57:11;;;;;;;2.38;1.27;;;;;;;;;;4937752;29;20190;-73
2023/09/24 14:00:15;;;;;;;3.23;1.33;;;;;;;;;;4937440;29;20624;-73
2023/09/24 14:03:22;;;;;;;2.53;1.47;;;;;;;;;;4936483;29;20226;-73
2023/09/24 14:06:26;;;;;;;2.87;1.17;;;;;;;;;;4937297;29;20187;-73
2023/09/24 14:12:53;;;;;;;2.43;1.47;;;;;;;;;;4937026;29;20714;-73
2023/09/24 14:15:57;;;;;;;2.60;1.30;;;;;;;;;;4937171;29;20190;-73
2023/09/24 14:19:02;;;;;;;2.40;1.80;;;;;;;;;;4937278;29;20185;-73
2023/09/24 14:22:06;;;;;;;1.67;1.40;;;;;;;;;;4937264;29;20216;-73
2023/09/24 14:25:10;;;;;;;3.67;1.40;;;;;;;;;;4936945;29;20191;-73
2023/09/24 14:28:14;;;;;;;2.03;1.53;;;;;;;;;;4936844;29;20185;-73
2023/09/24 14:31:18;;;;;;;2.83;1.43;;;;;;;;;;4936621;29;20216;-73
2023/09/24 14:34:23;;;;;;;3.00;1.57;;;;;;;;;;4936812;29;20184;-73
2023/09/24 14:37:28;;;;;;;1.23;1.13;;;;;;;;;;4937223;29;20638;-73
2023/09/24 14:40:35;;;;;;;2.10;1.30;;;;;;;;;;4936023;29;20519;-73
2023/09/24 14:43:40;;;;;;;2.17;1.40;;;;;;;;;;4936905;29;20187;-73
2023/09/24 14:46:45;;;;;;;2.90;1.43;;;;;;;;;;4936848;29;20182;-73
2023/09/24 14:49:49;;;;;;;1.80;1.27;;;;;;;;;;4937246;29;20194;-73
2023/09/24 14:52:53;;;;;;;3.13;1.37;;;;;;;;;;4936456;29;20229;-73
2023/09/24 14:55:58;;;;;;;3.27;1.40;;;;;;;;;;4935662;29;20185;-73
2023/09/24 14:59:02;;;;;;;3.67;1.40;;;;;;;;;;4936409;29;20194;-73
2023/09/24 15:02:06;;;;;;;2.40;1.50;;;;;;;;;;4936284;29;20214;-73
2023/09/24 15:05:10;;;;;;;3.57;1.33;;;;;;;;;;4935505;29;20178;-73
2023/09/24 15:08:16;;;;;;;2.37;1.40;;;;;;;;;;4936263;29;20194;-73
2023/09/24 15:11:20;;;;;;;3.80;1.60;;;;;;;;;;4935337;29;20212;-73
2023/09/24 15:14:26;;;;;;;2.13;1.30;;;;;;;;;;4936171;29;20180;-73
2023/09/24 15:17:30;;;;;;;2.60;1.40;;;;;;;;;;4936292;29;20632;-73
2023/09/24 15:20:38;;;;;;;3.33;1.50;;;;;;;;;;4936296;29;20620;-73
2023/09/24 15:23:42;;;;;;;3.87;1.23;;;;;;;;;;4935796;29;20184;-73
2023/09/24 15:26:46;;;;;;;4.83;1.53;;;;;;;;;;4936304;29;20620;-73
2023/09/24 15:29:50;;;;;;;4.17;1.60;;;;;;;;;;4935407;29;20184;-73
2023/09/24 15:32:54;;;;;;;4.27;1.50;;;;;;;;;;4936159;29;20216;-73
2023/09/24 15:35:58;;;;;;;1.67;1.20;;;;;;;;;;4935953;29;20187;-73
2023/09/24 15:39:03;;;;;;;3.20;1.70;;;;;;;;;;4936165;29;20628;-73
2023/09/24 15:42:07;;;;;;;1.83;1.13;;;;;;;;;;4935771;29;20215;-73
2023/09/24 15:45:12;;;;;;;4.00;1.60;;;;;;;;;;4936107;29;20192;-73
2023/09/24 15:48:16;;;;;;;7.33;2.00;;;;;;;;;;4935920;29;20635;-74
2023/09/24 15:51:20;;;;;;;7.37;1.73;;;;;;;;;;4935888;29;20216;-73
2023/09/24 15:54:24;;;;;;;3.97;2.10;;;;;;;;;;4936003;29;20184;-74
2023/09/24 15:57:28;;;;;;;4.40;1.50;;;;;;;;;;4936043;29;20180;-73
2023/09/24 16:00:32;;;;;;;2.03;1.30;;;;;;;;;;4935990;29;20521;-73
2023/09/24 16:03:37;;;;;;;1.97;1.40;;;;;;;;;;4935164;29;20184;-73
2023/09/24 16:06:41;;;;;;;2.50;1.60;;;;;;;;;;4935850;29;20184;-73
2023/09/24 16:09:45;;;;;;;2.67;1.53;;;;;;;;;;4938784;29;20184;-74
2023/09/24 16:12:49;;;;;;;2.87;1.60;;;;;;;;;;4939107;29;20581;-73
2023/09/24 16:15:57;;;;;;;2.20;1.27;;;;;;;;;;4939533;29;20632;-73
2023/09/24 16:19:01;;;;;;;3.60;1.40;;;;;;;;;;4938660;29;20185;-74
2023/09/24 16:22:05;;;;;;;6.73;1.60;;;;;;;;;;4939384;29;20223;-73
2023/09/24 16:25:09;;;;;;;4.80;1.40;;;;;;;;;;4939265;29;20188;-73
2023/09/24 16:28:13;;;;;;;3.57;1.60;;;;;;;;;;4939359;29;20184;-73
2023/09/24 16:31:17;;;;;;;4.97;1.87;;;;;;;;;;4938363;29;20212;-73
2023/09/24 16:34:22;;;;;;;5.60;1.27;;;;;;;;;;4939104;29;20192;-73
2023/09/24 16:37:27;;;;;;;2.80;1.70;;;;;;;;;;4938433;29;20184;-73
2023/09/24 16:40:31;;;;;;;1.70;1.30;;;;;;;;;;4938913;29;20184;-73
2023/09/24 16:43:35;;;;;;;2.87;1.63;;;;;;;;;;4939091;29;20184;-73
2023/09/24 16:46:39;;;;;;;2.13;1.60;;;;;;;;;;4938318;29;20188;-73
2023/09/24 16:49:43;;;;;;;4.90;1.80;;;;;;;;;;4938646;29;20192;-71
2023/09/24 16:52:48;;;;;;;3.80;1.73;;;;;;;;;;4938509;29;20228;-71
2023/09/24 16:55:53;;;;;;;3.77;1.80;;;;;;;;;;4938700;29;20176;-71
2023/09/24 16:58:57;;;;;;;3.23;1.80;;;;;;;;;;4938848;29;20189;-71
2023/09/24 17:02:01;;;;;;;2.60;1.57;;;;;;;;;;4938611;29;20216;-71
2023/09/24 17:05:05;;;;;;;2.40;1.70;;;;;;;;;;4938400;29;20184;-70
2023/09/24 17:08:10;;;;;;;3.30;1.50;;;;;;;;;;4937445;29;20185;-70
2023/09/24 17:11:14;;;;;;;3.30;1.67;;;;;;;;;;4938147;29;20208;-71
2023/09/24 17:14:20;;;;;;;2.27;1.50;;;;;;;;;;4938124;29;20180;-71
2023/09/24 17:17:24;;;;;;;5.30;1.97;;;;;;;;;;4938354;29;20517;-71
2023/09/24 17:20:28;;;;;;;2.70;1.47;;;;;;;;;;4937936;29;20184;-70
2023/09/24 17:23:32;;;;;;;5.13;1.87;;;;;;;;;;4937384;29;20219;-70
2023/09/24 17:26:36;;;;;;;2.23;1.50;;;;;;;;;;4938242;29;20187;-70
2023/09/24 17:29:41;;;;;;;4.27;1.77;;;;;;;;;;4938237;29;20189;-71
2023/09/24 17:32:45;;;;;;;11.03;2.10;;;;;;;;;;4937047;29;20232;-70
2023/09/24 17:35:50;;;;;;;5.07;1.70;;;;;;;;;;4938364;29;20533;-70
2023/09/24 17:38:54;;;;;;;2.73;1.60;;;;;;;;;;4937845;29;20188;-71
2023/09/24 17:41:58;;;;;;;2.70;1.70;;;;;;;;;;4937587;29;20215;-71
2023/09/24 17:45:02;;;;;;;2.37;1.60;;;;;;;;;;4937636;29;20176;-70
2023/09/24 17:48:07;;;;;;;3.10;1.90;;;;;;;;;;4937012;29;20181;-70
2023/09/24 17:51:14;;;;;;;3.80;1.90;;;;;;;;;;4936946;29;20220;-71
2023/09/24 17:54:19;;;;;;;3.27;1.90;;;;;;;;;;4937421;29;20181;-70
2023/09/24 17:57:23;;;;;;;2.37;2.03;;;;;;;;;;4937411;29;20188;-70
2023/09/24 18:00:28;;;;;;;4.70;2.10;;;;;;;;;;4937300;29;20195;-70
2023/09/24 18:03:33;;;;;;;6.30;2.13;;;;;;;;;;4937224;29;20220;-70
2023/09/24 18:06:37;;;;;;;2.90;1.80;;;;;;;;;;4937282;29;20188;-70
2023/09/24 18:09:41;;;;;;;2.30;1.70;;;;;;;;;;4937641;29;20522;-70
2023/09/24 18:12:45;;;;;;;2.93;2.10;;;;;;;;;;4937115;29;20232;-71
2023/09/24 18:15:54;;;;;;;5.87;2.00;;;;;;;;;;4936528;29;20184;-70
2023/09/24 18:18:58;;;;;;;3.97;1.73;;;;;;;;;;4937267;29;20188;-71
2023/09/24 18:22:02;;;;;;;3.37;1.90;;;;;;;;;;4937391;29;20220;-70
2023/09/24 18:25:07;;;;;;;2.80;1.83;;;;;;;;;;4925565;29;20193;-71
2023/09/24 18:28:11;;;;;;;2.57;1.77;;;;;;;;;;4937186;29;20192;-72
2023/09/24 18:31:15;;;;;;;5.00;1.80;;;;;;;;;;4937059;29;20216;-71
2023/09/24 18:34:19;;;;;;;3.73;2.00;;;;;;;;;;4936495;29;20184;-72